sensor_id;sensor_type;location;lat;lon;timestamp;temperature;humidity
10171;DHT22;5127;50.922;6.988;2022-08-03T00:01:10;25.00;51.70
10171;DHT22;5127;50.922;6.988;2022-08-03T00:03:37;24.90;51.70
10171;DHT22;5127;50.922;6.988;2022-08-03T00:06:05;24.90;51.70
10171;DHT22;5127;50.922;6.988;2022-08-03T00:08:32;24.90;52.00
10171;DHT22;5127;50.922;6.988;2022-08-03T00:11:00;24.80;51.90
10171;DHT22;5127;50.922;6.988;2022-08-03T00:13:28;24.80;51.90
10171;DHT22;5127;50.922;6.988;2022-08-03T00:15:55;24.80;52.20
10171;DHT22;5127;50.922;6.988;2022-08-03T00:18:23;24.80;52.00
10171;DHT22;5127;50.922;6.988;2022-08-03T00:20:50;24.70;52.10
10171;DHT22;5127;50.922;6.988;2022-08-03T00:23:17;24.70;52.20
10171;DHT22;5127;50.922;6.988;2022-08-03T00:25:45;24.80;52.40
10171;DHT22;5127;50.922;6.988;2022-08-03T00:28:12;24.60;52.80
10171;DHT22;5127;50.922;6.988;2022-08-03T00:30:40;24.60;52.40
10171;DHT22;5127;50.922;6.988;2022-08-03T00:33:08;24.70;52.50
10171;DHT22;5127;50.922;6.988;2022-08-03T00:35:35;24.60;52.50
10171;DHT22;5127;50.922;6.988;2022-08-03T00:38:03;24.60;52.60
10171;DHT22;5127;50.922;6.988;2022-08-03T00:40:32;24.60;52.50
10171;DHT22;5127;50.922;6.988;2022-08-03T00:43:00;24.50;52.80
10171;DHT22;5127;50.922;6.988;2022-08-03T00:45:30;24.50;53.20
10171;DHT22;5127;50.922;6.988;2022-08-03T00:47:59;24.50;52.80
10171;DHT22;5127;50.922;6.988;2022-08-03T00:50:29;24.40;52.80
10171;DHT22;5127;50.922;6.988;2022-08-03T00:52:58;24.40;53.50
10171;DHT22;5127;50.922;6.988;2022-08-03T00:55:26;24.40;52.90
10171;DHT22;5127;50.922;6.988;2022-08-03T00:57:54;24.30;52.70
10171;DHT22;5127;50.922;6.988;2022-08-03T01:00:23;24.30;53.10
10171;DHT22;5127;50.922;6.988;2022-08-03T01:02:51;24.30;53.10
10171;DHT22;5127;50.922;6.988;2022-08-03T01:05:20;24.30;53.40
10171;DHT22;5127;50.922;6.988;2022-08-03T01:07:59;24.30;53.50
10171;DHT22;5127;50.922;6.988;2022-08-03T01:10:36;24.20;53.70
10171;DHT22;5127;50.922;6.988;2022-08-03T01:13:20;24.20;53.70
10171;DHT22;5127;50.922;6.988;2022-08-03T01:15:55;24.20;54.00
10171;DHT22;5127;50.922;6.988;2022-08-03T01:18:31;24.10;53.70
10171;DHT22;5127;50.922;6.988;2022-08-03T01:21:08;24.10;53.70
10171;DHT22;5127;50.922;6.988;2022-08-03T01:26:51;24.00;54.20
10171;DHT22;5127;50.922;6.988;2022-08-03T01:29:57;24.00;54.10
10171;DHT22;5127;50.922;6.988;2022-08-03T01:32:30;24.00;54.10
10171;DHT22;5127;50.922;6.988;2022-08-03T01:35:02;23.90;53.90
10171;DHT22;5127;50.922;6.988;2022-08-03T01:37:36;23.90;54.10
10171;DHT22;5127;50.922;6.988;2022-08-03T01:40:05;23.80;54.20
10171;DHT22;5127;50.922;6.988;2022-08-03T01:42:36;23.80;54.10
10171;DHT22;5127;50.922;6.988;2022-08-03T01:45:08;23.80;54.30
10171;DHT22;5127;50.922;6.988;2022-08-03T01:47:38;23.70;54.50
10171;DHT22;5127;50.922;6.988;2022-08-03T01:50:06;23.70;54.30
10171;DHT22;5127;50.922;6.988;2022-08-03T01:52:36;23.70;54.20
10171;DHT22;5127;50.922;6.988;2022-08-03T01:55:06;23.70;54.60
10171;DHT22;5127;50.922;6.988;2022-08-03T01:57:34;23.60;54.60
10171;DHT22;5127;50.922;6.988;2022-08-03T02:00:03;23.60;54.40
10171;DHT22;5127;50.922;6.988;2022-08-03T02:02:39;23.60;54.40
10171;DHT22;5127;50.922;6.988;2022-08-03T02:05:08;23.60;54.60
10171;DHT22;5127;50.922;6.988;2022-08-03T02:07:39;23.60;54.70
10171;DHT22;5127;50.922;6.988;2022-08-03T02:10:08;23.50;54.70
10171;DHT22;5127;50.922;6.988;2022-08-03T02:12:38;23.50;54.70
10171;DHT22;5127;50.922;6.988;2022-08-03T02:15:06;23.50;54.80
10171;DHT22;5127;50.922;6.988;2022-08-03T02:17:34;23.50;54.80
10171;DHT22;5127;50.922;6.988;2022-08-03T02:20:04;23.40;54.60
10171;DHT22;5127;50.922;6.988;2022-08-03T02:22:32;23.40;54.90
10171;DHT22;5127;50.922;6.988;2022-08-03T02:25:00;23.30;54.80
10171;DHT22;5127;50.922;6.988;2022-08-03T02:27:28;23.30;55.00
10171;DHT22;5127;50.922;6.988;2022-08-03T02:30:02;23.30;54.90
10171;DHT22;5127;50.922;6.988;2022-08-03T02:32:33;23.30;55.30
10171;DHT22;5127;50.922;6.988;2022-08-03T02:35:05;23.20;55.00
10171;DHT22;5127;50.922;6.988;2022-08-03T02:37:35;23.20;55.00
10171;DHT22;5127;50.922;6.988;2022-08-03T02:40:05;23.20;55.10
10171;DHT22;5127;50.922;6.988;2022-08-03T02:42:35;23.20;55.20
10171;DHT22;5127;50.922;6.988;2022-08-03T02:45:05;23.10;55.10
10171;DHT22;5127;50.922;6.988;2022-08-03T02:47:35;23.10;55.40
10171;DHT22;5127;50.922;6.988;2022-08-03T02:50:08;23.10;55.20
10171;DHT22;5127;50.922;6.988;2022-08-03T02:52:37;23.10;55.40
10171;DHT22;5127;50.922;6.988;2022-08-03T02:55:08;23.10;55.10
10171;DHT22;5127;50.922;6.988;2022-08-03T02:57:36;23.00;55.20
10171;DHT22;5127;50.922;6.988;2022-08-03T03:00:08;23.00;55.30
10171;DHT22;5127;50.922;6.988;2022-08-03T03:02:35;23.00;55.30
10171;DHT22;5127;50.922;6.988;2022-08-03T03:05:06;23.00;55.10
10171;DHT22;5127;50.922;6.988;2022-08-03T03:07:35;23.00;55.20
10171;DHT22;5127;50.922;6.988;2022-08-03T03:10:03;22.90;55.10
10171;DHT22;5127;50.922;6.988;2022-08-03T03:12:32;22.90;55.10
10171;DHT22;5127;50.922;6.988;2022-08-03T03:15:00;22.90;55.40
10171;DHT22;5127;50.922;6.988;2022-08-03T03:17:29;22.90;55.30
10171;DHT22;5127;50.922;6.988;2022-08-03T03:19:57;22.80;55.70
10171;DHT22;5127;50.922;6.988;2022-08-03T03:22:26;22.80;55.40
10171;DHT22;5127;50.922;6.988;2022-08-03T03:24:54;22.80;55.50
10171;DHT22;5127;50.922;6.988;2022-08-03T03:27:21;22.80;55.50
10171;DHT22;5127;50.922;6.988;2022-08-03T03:29:49;22.70;55.50
10171;DHT22;5127;50.922;6.988;2022-08-03T03:32:16;22.70;55.50
10171;DHT22;5127;50.922;6.988;2022-08-03T03:34:44;22.70;55.60
10171;DHT22;5127;50.922;6.988;2022-08-03T03:37:12;22.70;55.60
10171;DHT22;5127;50.922;6.988;2022-08-03T03:39:41;22.70;55.50
10171;DHT22;5127;50.922;6.988;2022-08-03T03:42:09;22.60;55.80
10171;DHT22;5127;50.922;6.988;2022-08-03T03:44:36;22.60;56.30
10171;DHT22;5127;50.922;6.988;2022-08-03T03:47:03;22.60;55.60
10171;DHT22;5127;50.922;6.988;2022-08-03T03:49:31;22.60;55.70
10171;DHT22;5127;50.922;6.988;2022-08-03T03:51:58;22.60;55.80
10171;DHT22;5127;50.922;6.988;2022-08-03T03:54:26;22.60;55.70
10171;DHT22;5127;50.922;6.988;2022-08-03T03:56:54;22.60;55.90
10171;DHT22;5127;50.922;6.988;2022-08-03T03:59:21;22.50;56.00
10171;DHT22;5127;50.922;6.988;2022-08-03T04:01:49;22.50;55.90
10171;DHT22;5127;50.922;6.988;2022-08-03T04:04:17;22.50;55.80
10171;DHT22;5127;50.922;6.988;2022-08-03T04:07:02;22.50;55.80
10171;DHT22;5127;50.922;6.988;2022-08-03T04:09:47;22.50;55.80
10171;DHT22;5127;50.922;6.988;2022-08-03T04:12:35;22.50;55.90
10171;DHT22;5127;50.922;6.988;2022-08-03T04:15:04;22.50;56.30
10171;DHT22;5127;50.922;6.988;2022-08-03T04:17:31;22.40;56.00
10171;DHT22;5127;50.922;6.988;2022-08-03T04:20:00;22.40;56.10
10171;DHT22;5127;50.922;6.988;2022-08-03T04:22:30;22.40;56.20
10171;DHT22;5127;50.922;6.988;2022-08-03T04:25:02;22.30;56.30
10171;DHT22;5127;50.922;6.988;2022-08-03T04:27:35;22.40;56.50
10171;DHT22;5127;50.922;6.988;2022-08-03T04:30:04;22.40;56.40
10171;DHT22;5127;50.922;6.988;2022-08-03T04:32:33;22.30;56.50
10171;DHT22;5127;50.922;6.988;2022-08-03T04:35:02;22.30;56.40
10171;DHT22;5127;50.922;6.988;2022-08-03T04:37:34;22.30;56.30
10171;DHT22;5127;50.922;6.988;2022-08-03T04:40:05;22.30;56.60
10171;DHT22;5127;50.922;6.988;2022-08-03T04:42:36;22.30;56.60
10171;DHT22;5127;50.922;6.988;2022-08-03T04:45:05;22.30;56.60
10171;DHT22;5127;50.922;6.988;2022-08-03T04:47:34;22.40;56.60
10171;DHT22;5127;50.922;6.988;2022-08-03T04:50:04;22.40;56.60
10171;DHT22;5127;50.922;6.988;2022-08-03T04:52:33;22.40;56.60
10171;DHT22;5127;50.922;6.988;2022-08-03T04:55:00;22.40;56.60
10171;DHT22;5127;50.922;6.988;2022-08-03T04:57:28;22.50;56.70
10171;DHT22;5127;50.922;6.988;2022-08-03T04:59:56;22.50;56.70
10171;DHT22;5127;50.922;6.988;2022-08-03T05:02:24;22.50;56.80
10171;DHT22;5127;50.922;6.988;2022-08-03T05:04:51;22.50;56.70
10171;DHT22;5127;50.922;6.988;2022-08-03T05:07:18;22.50;56.90
10171;DHT22;5127;50.922;6.988;2022-08-03T05:09:46;22.60;56.80
10171;DHT22;5127;50.922;6.988;2022-08-03T05:12:13;22.60;56.70
10171;DHT22;5127;50.922;6.988;2022-08-03T05:14:40;22.60;56.60
10171;DHT22;5127;50.922;6.988;2022-08-03T05:17:09;22.60;57.10
10171;DHT22;5127;50.922;6.988;2022-08-03T05:19:36;22.60;56.70
10171;DHT22;5127;50.922;6.988;2022-08-03T05:22:03;22.70;56.50
10171;DHT22;5127;50.922;6.988;2022-08-03T05:24:31;22.80;56.70
10171;DHT22;5127;50.922;6.988;2022-08-03T05:26:58;22.70;56.50
10171;DHT22;5127;50.922;6.988;2022-08-03T05:29:25;22.70;56.40
10171;DHT22;5127;50.922;6.988;2022-08-03T05:31:52;22.80;56.50
10171;DHT22;5127;50.922;6.988;2022-08-03T05:34:21;22.80;56.40
10171;DHT22;5127;50.922;6.988;2022-08-03T05:36:48;22.80;56.40
10171;DHT22;5127;50.922;6.988;2022-08-03T05:39:15;22.90;56.40
10171;DHT22;5127;50.922;6.988;2022-08-03T05:41:43;22.90;56.40
10171;DHT22;5127;50.922;6.988;2022-08-03T05:44:10;22.90;56.40
10171;DHT22;5127;50.922;6.988;2022-08-03T05:46:37;23.00;56.40
10171;DHT22;5127;50.922;6.988;2022-08-03T05:49:04;23.10;56.40
10171;DHT22;5127;50.922;6.988;2022-08-03T05:51:33;23.10;56.40
10171;DHT22;5127;50.922;6.988;2022-08-03T05:54:02;23.10;56.40
10171;DHT22;5127;50.922;6.988;2022-08-03T05:56:29;23.10;56.40
10171;DHT22;5127;50.922;6.988;2022-08-03T05:58:57;23.20;56.30
10171;DHT22;5127;50.922;6.988;2022-08-03T06:01:24;23.20;56.30
10171;DHT22;5127;50.922;6.988;2022-08-03T06:03:51;23.20;56.40
10171;DHT22;5127;50.922;6.988;2022-08-03T06:06:19;23.20;56.30
10171;DHT22;5127;50.922;6.988;2022-08-03T06:08:47;23.30;56.40
10171;DHT22;5127;50.922;6.988;2022-08-03T06:11:15;23.30;56.40
10171;DHT22;5127;50.922;6.988;2022-08-03T06:13:42;23.40;56.30
10171;DHT22;5127;50.922;6.988;2022-08-03T06:16:10;23.40;56.20
10171;DHT22;5127;50.922;6.988;2022-08-03T06:18:37;23.50;56.30
10171;DHT22;5127;50.922;6.988;2022-08-03T06:21:05;23.50;56.20
10171;DHT22;5127;50.922;6.988;2022-08-03T06:23:32;23.60;56.20
10171;DHT22;5127;50.922;6.988;2022-08-03T06:26:01;23.60;56.20
10171;DHT22;5127;50.922;6.988;2022-08-03T06:28:28;23.70;56.20
10171;DHT22;5127;50.922;6.988;2022-08-03T06:30:55;23.70;56.10
10171;DHT22;5127;50.922;6.988;2022-08-03T06:33:23;23.80;56.00
10171;DHT22;5127;50.922;6.988;2022-08-03T06:35:51;23.80;56.10
10171;DHT22;5127;50.922;6.988;2022-08-03T06:38:18;23.90;56.20
10171;DHT22;5127;50.922;6.988;2022-08-03T06:40:46;24.00;56.20
10171;DHT22;5127;50.922;6.988;2022-08-03T06:43:14;24.10;56.30
10171;DHT22;5127;50.922;6.988;2022-08-03T06:45:41;24.10;56.30
10171;DHT22;5127;50.922;6.988;2022-08-03T06:48:10;24.10;56.20
10171;DHT22;5127;50.922;6.988;2022-08-03T06:50:39;24.20;56.10
10171;DHT22;5127;50.922;6.988;2022-08-03T06:53:07;24.30;56.80
10171;DHT22;5127;50.922;6.988;2022-08-03T06:55:35;24.40;56.30
10171;DHT22;5127;50.922;6.988;2022-08-03T06:58:02;24.50;56.80
10171;DHT22;5127;50.922;6.988;2022-08-03T07:00:31;24.70;57.70
10171;DHT22;5127;50.922;6.988;2022-08-03T07:02:58;25.10;58.60
10171;DHT22;5127;50.922;6.988;2022-08-03T07:05:25;25.50;59.40
10171;DHT22;5127;50.922;6.988;2022-08-03T07:07:54;26.10;59.70
10171;DHT22;5127;50.922;6.988;2022-08-03T07:10:22;26.80;60.40
10171;DHT22;5127;50.922;6.988;2022-08-03T07:12:49;27.50;60.10
10171;DHT22;5127;50.922;6.988;2022-08-03T07:15:17;28.30;59.50
10171;DHT22;5127;50.922;6.988;2022-08-03T07:17:45;29.10;58.80
10171;DHT22;5127;50.922;6.988;2022-08-03T07:20:12;29.90;57.10
10171;DHT22;5127;50.922;6.988;2022-08-03T07:22:40;30.60;57.00
10171;DHT22;5127;50.922;6.988;2022-08-03T07:25:08;31.30;56.20
10171;DHT22;5127;50.922;6.988;2022-08-03T07:27:35;32.10;55.20
10171;DHT22;5127;50.922;6.988;2022-08-03T07:30:06;32.70;53.60
10171;DHT22;5127;50.922;6.988;2022-08-03T07:32:34;33.40;52.40
10171;DHT22;5127;50.922;6.988;2022-08-03T07:35:03;34.00;51.80
10171;DHT22;5127;50.922;6.988;2022-08-03T07:37:31;34.50;50.50
10171;DHT22;5127;50.922;6.988;2022-08-03T07:39:59;35.10;50.30
10171;DHT22;5127;50.922;6.988;2022-08-03T07:42:27;35.50;48.50
10171;DHT22;5127;50.922;6.988;2022-08-03T07:44:54;35.90;48.10
10171;DHT22;5127;50.922;6.988;2022-08-03T07:47:23;36.30;47.60
10171;DHT22;5127;50.922;6.988;2022-08-03T07:49:51;36.70;46.50
10171;DHT22;5127;50.922;6.988;2022-08-03T07:52:20;37.00;46.10
10171;DHT22;5127;50.922;6.988;2022-08-03T07:55:06;37.30;44.90
10171;DHT22;5127;50.922;6.988;2022-08-03T07:57:36;37.70;44.70
10171;DHT22;5127;50.922;6.988;2022-08-03T08:00:06;37.90;43.10
10171;DHT22;5127;50.922;6.988;2022-08-03T08:02:41;38.30;42.20
10171;DHT22;5127;50.922;6.988;2022-08-03T08:05:09;38.50;42.80
10171;DHT22;5127;50.922;6.988;2022-08-03T08:07:39;38.70;41.70
10171;DHT22;5127;50.922;6.988;2022-08-03T08:10:07;38.90;41.00
10171;DHT22;5127;50.922;6.988;2022-08-03T08:12:35;39.00;40.40
10171;DHT22;5127;50.922;6.988;2022-08-03T08:15:04;39.20;40.30
10171;DHT22;5127;50.922;6.988;2022-08-03T08:17:40;39.30;40.20
10171;DHT22;5127;50.922;6.988;2022-08-03T08:20:09;39.50;39.50
10171;DHT22;5127;50.922;6.988;2022-08-03T08:22:37;39.60;38.80
10171;DHT22;5127;50.922;6.988;2022-08-03T08:25:06;39.70;38.90
10171;DHT22;5127;50.922;6.988;2022-08-03T08:27:39;39.80;38.30
10171;DHT22;5127;50.922;6.988;2022-08-03T08:30:07;40.00;38.00
10171;DHT22;5127;50.922;6.988;2022-08-03T08:32:34;40.00;37.90
10171;DHT22;5127;50.922;6.988;2022-08-03T08:35:03;40.10;37.70
10171;DHT22;5127;50.922;6.988;2022-08-03T08:37:30;40.10;37.30
10171;DHT22;5127;50.922;6.988;2022-08-03T08:39:59;40.20;37.30
10171;DHT22;5127;50.922;6.988;2022-08-03T08:42:26;40.30;36.80
10171;DHT22;5127;50.922;6.988;2022-08-03T08:44:54;40.40;36.80
10171;DHT22;5127;50.922;6.988;2022-08-03T08:47:23;40.30;36.20
10171;DHT22;5127;50.922;6.988;2022-08-03T08:49:52;40.40;36.00
10171;DHT22;5127;50.922;6.988;2022-08-03T08:52:23;40.50;36.00
10171;DHT22;5127;50.922;6.988;2022-08-03T08:54:52;40.50;35.50
10171;DHT22;5127;50.922;6.988;2022-08-03T08:57:29;40.60;35.70
10171;DHT22;5127;50.922;6.988;2022-08-03T08:59:57;40.70;34.70
10171;DHT22;5127;50.922;6.988;2022-08-03T09:02:27;40.80;34.90
10171;DHT22;5127;50.922;6.988;2022-08-03T09:04:55;40.80;35.10
10171;DHT22;5127;50.922;6.988;2022-08-03T09:07:23;40.70;34.50
10171;DHT22;5127;50.922;6.988;2022-08-03T09:09:50;40.90;34.50
10171;DHT22;5127;50.922;6.988;2022-08-03T09:12:18;40.90;34.00
10171;DHT22;5127;50.922;6.988;2022-08-03T09:14:47;40.90;34.10
10171;DHT22;5127;50.922;6.988;2022-08-03T09:17:14;41.00;34.10
10171;DHT22;5127;50.922;6.988;2022-08-03T09:19:41;40.90;34.10
10171;DHT22;5127;50.922;6.988;2022-08-03T09:22:11;40.90;33.80
10171;DHT22;5127;50.922;6.988;2022-08-03T09:24:53;40.90;33.80
10171;DHT22;5127;50.922;6.988;2022-08-03T09:27:21;40.90;34.10
10171;DHT22;5127;50.922;6.988;2022-08-03T09:29:52;40.90;33.40
10171;DHT22;5127;50.922;6.988;2022-08-03T09:32:20;41.00;32.80
10171;DHT22;5127;50.922;6.988;2022-08-03T09:34:48;40.90;32.80
10171;DHT22;5127;50.922;6.988;2022-08-03T09:37:18;40.80;32.90
10171;DHT22;5127;50.922;6.988;2022-08-03T09:39:46;41.00;32.90
10171;DHT22;5127;50.922;6.988;2022-08-03T09:42:14;41.00;32.90
10171;DHT22;5127;50.922;6.988;2022-08-03T09:44:44;40.90;32.60
10171;DHT22;5127;50.922;6.988;2022-08-03T09:47:15;40.90;32.30
10171;DHT22;5127;50.922;6.988;2022-08-03T09:49:56;40.80;31.70
10171;DHT22;5127;50.922;6.988;2022-08-03T09:52:29;40.60;31.60
10171;DHT22;5127;50.922;6.988;2022-08-03T09:54:58;40.60;31.60
10171;DHT22;5127;50.922;6.988;2022-08-03T09:57:27;40.40;31.50
10171;DHT22;5127;50.922;6.988;2022-08-03T10:00:06;40.20;31.20
10171;DHT22;5127;50.922;6.988;2022-08-03T10:02:43;39.80;31.30
10171;DHT22;5127;50.922;6.988;2022-08-03T10:05:11;39.50;31.10
10171;DHT22;5127;50.922;6.988;2022-08-03T10:07:43;39.40;31.00
10171;DHT22;5127;50.922;6.988;2022-08-03T10:10:11;38.90;31.30
10171;DHT22;5127;50.922;6.988;2022-08-03T10:12:39;38.60;31.40
10171;DHT22;5127;50.922;6.988;2022-08-03T10:15:08;38.30;31.50
10171;DHT22;5127;50.922;6.988;2022-08-03T10:17:35;38.00;31.50
10171;DHT22;5127;50.922;6.988;2022-08-03T10:20:05;37.80;31.80
10171;DHT22;5127;50.922;6.988;2022-08-03T10:22:35;37.50;31.90
10171;DHT22;5127;50.922;6.988;2022-08-03T10:25:07;37.50;31.70
10171;DHT22;5127;50.922;6.988;2022-08-03T10:27:37;37.10;31.70
10171;DHT22;5127;50.922;6.988;2022-08-03T10:30:07;37.00;32.00
10171;DHT22;5127;50.922;6.988;2022-08-03T10:32:39;36.70;32.10
10171;DHT22;5127;50.922;6.988;2022-08-03T10:35:11;36.50;32.10
10171;DHT22;5127;50.922;6.988;2022-08-03T10:37:41;36.40;32.40
10171;DHT22;5127;50.922;6.988;2022-08-03T10:40:12;36.10;32.60
10171;DHT22;5127;50.922;6.988;2022-08-03T10:42:41;36.00;32.80
10171;DHT22;5127;50.922;6.988;2022-08-03T10:45:13;35.80;32.90
10171;DHT22;5127;50.922;6.988;2022-08-03T10:47:41;35.70;33.10
10171;DHT22;5127;50.922;6.988;2022-08-03T10:50:10;35.60;33.20
10171;DHT22;5127;50.922;6.988;2022-08-03T10:52:55;35.50;33.30
10171;DHT22;5127;50.922;6.988;2022-08-03T10:55:29;35.40;33.80
10171;DHT22;5127;50.922;6.988;2022-08-03T10:58:14;35.30;33.70
10171;DHT22;5127;50.922;6.988;2022-08-03T11:00:48;35.30;33.90
10171;DHT22;5127;50.922;6.988;2022-08-03T11:03:16;35.20;34.20
10171;DHT22;5127;50.922;6.988;2022-08-03T11:05:46;35.20;34.20
10171;DHT22;5127;50.922;6.988;2022-08-03T11:11:00;35.00;34.10
10171;DHT22;5127;50.922;6.988;2022-08-03T11:13:29;35.00;34.40
10171;DHT22;5127;50.922;6.988;2022-08-03T11:16:01;34.90;34.40
10171;DHT22;5127;50.922;6.988;2022-08-03T11:18:29;34.90;34.60
10171;DHT22;5127;50.922;6.988;2022-08-03T11:20:59;34.90;34.70
10171;DHT22;5127;50.922;6.988;2022-08-03T11:23:41;34.80;34.70
10171;DHT22;5127;50.922;6.988;2022-08-03T11:26:13;34.90;34.90
10171;DHT22;5127;50.922;6.988;2022-08-03T11:28:41;34.80;34.80
10171;DHT22;5127;50.922;6.988;2022-08-03T11:31:43;34.80;34.90
10171;DHT22;5127;50.922;6.988;2022-08-03T11:34:13;34.80;35.10
10171;DHT22;5127;50.922;6.988;2022-08-03T11:37:20;34.80;35.40
10171;DHT22;5127;50.922;6.988;2022-08-03T11:39:52;34.80;35.00
10171;DHT22;5127;50.922;6.988;2022-08-03T11:42:38;34.80;34.90
10171;DHT22;5127;50.922;6.988;2022-08-03T11:45:06;34.80;35.00
10171;DHT22;5127;50.922;6.988;2022-08-03T11:47:37;34.70;35.10
10171;DHT22;5127;50.922;6.988;2022-08-03T11:50:05;34.70;35.00
10171;DHT22;5127;50.922;6.988;2022-08-03T11:52:40;34.80;35.10
10171;DHT22;5127;50.922;6.988;2022-08-03T11:55:13;34.80;35.10
10171;DHT22;5127;50.922;6.988;2022-08-03T11:57:41;34.80;35.10
10171;DHT22;5127;50.922;6.988;2022-08-03T12:00:28;34.90;35.30
10171;DHT22;5127;50.922;6.988;2022-08-03T12:02:56;34.80;35.30
10171;DHT22;5127;50.922;6.988;2022-08-03T12:05:43;34.80;35.20
10171;DHT22;5127;50.922;6.988;2022-08-03T12:08:13;34.90;35.20
10171;DHT22;5127;50.922;6.988;2022-08-03T12:10:47;35.00;35.00
10171;DHT22;5127;50.922;6.988;2022-08-03T12:13:15;35.00;35.00
10171;DHT22;5127;50.922;6.988;2022-08-03T12:15:42;34.80;35.00
10171;DHT22;5127;50.922;6.988;2022-08-03T12:18:15;34.90;34.90
10171;DHT22;5127;50.922;6.988;2022-08-03T12:20:43;35.00;34.80
10171;DHT22;5127;50.922;6.988;2022-08-03T12:23:12;35.00;35.00
10171;DHT22;5127;50.922;6.988;2022-08-03T12:25:41;35.00;34.90
10171;DHT22;5127;50.922;6.988;2022-08-03T12:28:14;34.90;34.80
10171;DHT22;5127;50.922;6.988;2022-08-03T12:30:47;34.90;34.90
10171;DHT22;5127;50.922;6.988;2022-08-03T12:33:16;34.80;34.90
10171;DHT22;5127;50.922;6.988;2022-08-03T12:35:47;34.80;35.60
10171;DHT22;5127;50.922;6.988;2022-08-03T12:38:20;34.80;35.10
10171;DHT22;5127;50.922;6.988;2022-08-03T12:41:00;34.70;35.10
10171;DHT22;5127;50.922;6.988;2022-08-03T12:43:28;34.70;35.20
10171;DHT22;5127;50.922;6.988;2022-08-03T12:46:13;34.70;35.20
10171;DHT22;5127;50.922;6.988;2022-08-03T12:49:04;34.70;36.00
10171;DHT22;5127;50.922;6.988;2022-08-03T12:51:33;34.60;35.50
10171;DHT22;5127;50.922;6.988;2022-08-03T12:54:04;34.60;35.10
10171;DHT22;5127;50.922;6.988;2022-08-03T12:56:32;34.60;35.00
10171;DHT22;5127;50.922;6.988;2022-08-03T12:58:59;34.60;35.00
10171;DHT22;5127;50.922;6.988;2022-08-03T13:01:35;34.50;34.80
10171;DHT22;5127;50.922;6.988;2022-08-03T13:04:03;34.50;35.00
10171;DHT22;5127;50.922;6.988;2022-08-03T13:06:31;34.50;35.20
10171;DHT22;5127;50.922;6.988;2022-08-03T13:09:05;34.50;35.30
10171;DHT22;5127;50.922;6.988;2022-08-03T13:11:33;34.50;35.30
10171;DHT22;5127;50.922;6.988;2022-08-03T13:14:00;34.50;35.10
10171;DHT22;5127;50.922;6.988;2022-08-03T13:16:28;34.60;35.30
10171;DHT22;5127;50.922;6.988;2022-08-03T13:18:55;34.60;35.20
10171;DHT22;5127;50.922;6.988;2022-08-03T13:21:22;34.70;35.10
10171;DHT22;5127;50.922;6.988;2022-08-03T13:23:49;34.70;34.90
10171;DHT22;5127;50.922;6.988;2022-08-03T13:26:18;34.70;34.70
10171;DHT22;5127;50.922;6.988;2022-08-03T13:28:45;34.70;34.70
10171;DHT22;5127;50.922;6.988;2022-08-03T13:31:13;34.70;34.80
10171;DHT22;5127;50.922;6.988;2022-08-03T13:33:40;34.70;34.70
10171;DHT22;5127;50.922;6.988;2022-08-03T13:36:07;34.70;34.70
10171;DHT22;5127;50.922;6.988;2022-08-03T13:38:35;34.80;34.90
10171;DHT22;5127;50.922;6.988;2022-08-03T13:41:02;34.80;34.80
10171;DHT22;5127;50.922;6.988;2022-08-03T13:43:31;34.70;34.70
10171;DHT22;5127;50.922;6.988;2022-08-03T13:45:58;34.70;34.60
10171;DHT22;5127;50.922;6.988;2022-08-03T13:48:25;34.80;34.50
10171;DHT22;5127;50.922;6.988;2022-08-03T13:50:52;34.70;34.60
10171;DHT22;5127;50.922;6.988;2022-08-03T13:53:20;34.80;34.70
10171;DHT22;5127;50.922;6.988;2022-08-03T13:55:47;34.70;34.70
10171;DHT22;5127;50.922;6.988;2022-08-03T13:58:14;34.80;34.70
10171;DHT22;5127;50.922;6.988;2022-08-03T14:00:43;34.70;34.60
10171;DHT22;5127;50.922;6.988;2022-08-03T14:03:10;34.70;34.60
10171;DHT22;5127;50.922;6.988;2022-08-03T14:05:37;34.80;34.50
10171;DHT22;5127;50.922;6.988;2022-08-03T14:08:05;34.80;34.50
10171;DHT22;5127;50.922;6.988;2022-08-03T14:10:34;34.80;34.60
10171;DHT22;5127;50.922;6.988;2022-08-03T14:13:01;34.80;34.40
10171;DHT22;5127;50.922;6.988;2022-08-03T14:15:29;34.70;34.60
10171;DHT22;5127;50.922;6.988;2022-08-03T14:17:58;34.70;34.50
10171;DHT22;5127;50.922;6.988;2022-08-03T14:20:26;34.80;35.10
10171;DHT22;5127;50.922;6.988;2022-08-03T14:22:53;34.80;34.60
10171;DHT22;5127;50.922;6.988;2022-08-03T14:25:21;34.80;34.50
10171;DHT22;5127;50.922;6.988;2022-08-03T14:27:48;34.80;34.50
10171;DHT22;5127;50.922;6.988;2022-08-03T14:30:15;34.80;34.70
10171;DHT22;5127;50.922;6.988;2022-08-03T14:32:43;34.70;34.60
10171;DHT22;5127;50.922;6.988;2022-08-03T14:35:12;34.80;34.70
10171;DHT22;5127;50.922;6.988;2022-08-03T14:37:39;34.70;34.70
10171;DHT22;5127;50.922;6.988;2022-08-03T14:40:07;34.80;34.90
10171;DHT22;5127;50.922;6.988;2022-08-03T14:42:34;34.80;34.70
10171;DHT22;5127;50.922;6.988;2022-08-03T14:45:02;34.80;34.90
10171;DHT22;5127;50.922;6.988;2022-08-03T14:47:29;34.80;34.90
10171;DHT22;5127;50.922;6.988;2022-08-03T14:49:58;34.90;34.80
10171;DHT22;5127;50.922;6.988;2022-08-03T14:52:26;34.90;34.80
10171;DHT22;5127;50.922;6.988;2022-08-03T14:54:54;34.90;34.90
10171;DHT22;5127;50.922;6.988;2022-08-03T14:57:21;35.00;34.90
10171;DHT22;5127;50.922;6.988;2022-08-03T14:59:49;35.00;34.50
10171;DHT22;5127;50.922;6.988;2022-08-03T15:02:16;35.00;34.60
10171;DHT22;5127;50.922;6.988;2022-08-03T15:04:43;35.00;34.50
10171;DHT22;5127;50.922;6.988;2022-08-03T15:07:10;35.00;34.50
10171;DHT22;5127;50.922;6.988;2022-08-03T15:09:39;35.00;34.50
10171;DHT22;5127;50.922;6.988;2022-08-03T15:12:06;35.10;34.40
10171;DHT22;5127;50.922;6.988;2022-08-03T15:14:34;35.10;34.40
10171;DHT22;5127;50.922;6.988;2022-08-03T15:17:01;35.20;34.70
10171;DHT22;5127;50.922;6.988;2022-08-03T15:19:28;35.20;34.40
10171;DHT22;5127;50.922;6.988;2022-08-03T15:21:56;35.10;34.10
10171;DHT22;5127;50.922;6.988;2022-08-03T15:24:23;35.30;34.30
10171;DHT22;5127;50.922;6.988;2022-08-03T15:26:52;35.30;34.20
10171;DHT22;5127;50.922;6.988;2022-08-03T15:29:19;35.30;34.00
10171;DHT22;5127;50.922;6.988;2022-08-03T15:31:46;35.30;34.00
10171;DHT22;5127;50.922;6.988;2022-08-03T15:34:14;35.40;34.00
10171;DHT22;5127;50.922;6.988;2022-08-03T15:36:41;35.30;34.00
10171;DHT22;5127;50.922;6.988;2022-08-03T15:39:08;35.30;34.10
10171;DHT22;5127;50.922;6.988;2022-08-03T15:41:35;35.30;33.90
10171;DHT22;5127;50.922;6.988;2022-08-03T15:44:04;35.30;34.10
10171;DHT22;5127;50.922;6.988;2022-08-03T15:46:31;35.30;34.10
10171;DHT22;5127;50.922;6.988;2022-08-03T15:48:59;35.30;34.20
10171;DHT22;5127;50.922;6.988;2022-08-03T15:51:26;35.30;34.00
10171;DHT22;5127;50.922;6.988;2022-08-03T15:53:53;35.40;34.00
10171;DHT22;5127;50.922;6.988;2022-08-03T15:56:21;35.30;34.10
10171;DHT22;5127;50.922;6.988;2022-08-03T15:58:48;35.30;33.90
10171;DHT22;5127;50.922;6.988;2022-08-03T16:01:16;35.30;34.10
10171;DHT22;5127;50.922;6.988;2022-08-03T16:03:45;35.30;33.90
10171;DHT22;5127;50.922;6.988;2022-08-03T16:06:12;35.30;33.90